sensor_id;sensor_type;location;lat;lon;timestamp;pressure;altitude;pressure_sealevel;temperature
8533;BMP280;4304;53.876;10.662;2023-04-03T00:01:01;103411.25;;;-0.37
8533;BMP280;4304;53.876;10.662;2023-04-03T00:03:29;103420.50;;;-0.43
8533;BMP280;4304;53.876;10.662;2023-04-03T00:05:54;103415.31;;;-0.46
8533;BMP280;4304;53.876;10.662;2023-04-03T00:08:20;103415.22;;;-0.52
8533;BMP280;4304;53.876;10.662;2023-04-03T00:10:47;103420.22;;;-0.56
8533;BMP280;4304;53.876;10.662;2023-04-03T00:13:12;103412.47;;;-0.61
8533;BMP280;4304;53.876;10.662;2023-04-03T00:15:46;103414.00;;;-0.70
8533;BMP280;4304;53.876;10.662;2023-04-03T00:18:15;103408.88;;;-0.70
8533;BMP280;4304;53.876;10.662;2023-04-03T00:20:43;103422.50;;;-0.70
8533;BMP280;4304;53.876;10.662;2023-04-03T00:23:11;103426.75;;;-0.70
8533;BMP280;4304;53.876;10.662;2023-04-03T00:25:36;103419.09;;;-0.70
8533;BMP280;4304;53.876;10.662;2023-04-03T00:28:04;103413.84;;;-0.76
8533;BMP280;4304;53.876;10.662;2023-04-03T00:30:38;103425.84;;;-0.72
8533;BMP280;4304;53.876;10.662;2023-04-03T00:33:06;103427.41;;;-0.80
8533;BMP280;4304;53.876;10.662;2023-04-03T00:35:34;103418.03;;;-0.80
8533;BMP280;4304;53.876;10.662;2023-04-03T00:38:02;103429.09;;;-0.79
8533;BMP280;4304;53.876;10.662;2023-04-03T00:40:34;103428.25;;;-0.80
8533;BMP280;4304;53.876;10.662;2023-04-03T00:43:10;103434.19;;;-0.81
8533;BMP280;4304;53.876;10.662;2023-04-03T00:45:41;103434.06;;;-0.86
8533;BMP280;4304;53.876;10.662;2023-04-03T00:48:11;103440.00;;;-0.87
8533;BMP280;4304;53.876;10.662;2023-04-03T00:50:40;103428.78;;;-0.94
8533;BMP280;4304;53.876;10.662;2023-04-03T00:53:10;103436.50;;;-0.91
8533;BMP280;4304;53.876;10.662;2023-04-03T00:55:37;103443.22;;;-0.96
8533;BMP280;4304;53.876;10.662;2023-04-03T00:58:06;103439.81;;;-0.96
8533;BMP280;4304;53.876;10.662;2023-04-03T01:00:33;103439.78;;;-0.98
8533;BMP280;4304;53.876;10.662;2023-04-03T01:03:01;103429.38;;;-1.05
8533;BMP280;4304;53.876;10.662;2023-04-03T01:05:28;103434.56;;;-1.02
8533;BMP280;4304;53.876;10.662;2023-04-03T01:07:54;103436.97;;;-1.08
8533;BMP280;4304;53.876;10.662;2023-04-03T01:10:23;103437.88;;;-1.06
8533;BMP280;4304;53.876;10.662;2023-04-03T01:12:49;103440.44;;;-1.06
8533;BMP280;4304;53.876;10.662;2023-04-03T01:15:22;103439.41;;;-1.14
8533;BMP280;4304;53.876;10.662;2023-04-03T01:17:54;103437.66;;;-1.15
8533;BMP280;4304;53.876;10.662;2023-04-03T01:23:16;103438.44;;;-1.19
8533;BMP280;4304;53.876;10.662;2023-04-03T01:25:55;103438.44;;;-1.19
8533;BMP280;4304;53.876;10.662;2023-04-03T01:28:27;103430.69;;;-1.22
8533;BMP280;4304;53.876;10.662;2023-04-03T01:33:19;103446.13;;;-1.18
8533;BMP280;4304;53.876;10.662;2023-04-03T01:35:45;103443.56;;;-1.18
8533;BMP280;4304;53.876;10.662;2023-04-03T01:38:10;103441.69;;;-1.26
8533;BMP280;4304;53.876;10.662;2023-04-03T01:40:38;103446.78;;;-1.25
8533;BMP280;4304;53.876;10.662;2023-04-03T01:43:03;103447.75;;;-1.21
8533;BMP280;4304;53.876;10.662;2023-04-03T01:45:29;103445.84;;;-1.28
8533;BMP280;4304;53.876;10.662;2023-04-03T01:47:57;103436.41;;;-1.32
8533;BMP280;4304;53.876;10.662;2023-04-03T01:50:23;103434.72;;;-1.31
8533;BMP280;4304;53.876;10.662;2023-04-03T01:52:48;103454.28;;;-1.32
8533;BMP280;4304;53.876;10.662;2023-04-03T01:55:14;103441.31;;;-1.39
8533;BMP280;4304;53.876;10.662;2023-04-03T01:57:40;103431.84;;;-1.45
8533;BMP280;4304;53.876;10.662;2023-04-03T02:00:06;103447.19;;;-1.43
8533;BMP280;4304;53.876;10.662;2023-04-03T02:02:33;103445.53;;;-1.41
8533;BMP280;4304;53.876;10.662;2023-04-03T02:04:58;103446.47;;;-1.38
8533;BMP280;4304;53.876;10.662;2023-04-03T02:07:23;103442.13;;;-1.42
8533;BMP280;4304;53.876;10.662;2023-04-03T02:09:49;103450.63;;;-1.41
8533;BMP280;4304;53.876;10.662;2023-04-03T02:12:15;103437.75;;;-1.47
8533;BMP280;4304;53.876;10.662;2023-04-03T02:14:41;103441.97;;;-1.48
8533;BMP280;4304;53.876;10.662;2023-04-03T02:17:06;103444.56;;;-1.46
8533;BMP280;4304;53.876;10.662;2023-04-03T02:19:34;103444.56;;;-1.46
8533;BMP280;4304;53.876;10.662;2023-04-03T02:22:01;103450.53;;;-1.46
8533;BMP280;4304;53.876;10.662;2023-04-03T02:24:26;103437.72;;;-1.49
8533;BMP280;4304;53.876;10.662;2023-04-03T02:26:54;103435.88;;;-1.54
8533;BMP280;4304;53.876;10.662;2023-04-03T02:29:20;103429.03;;;-1.57
8533;BMP280;4304;53.876;10.662;2023-04-03T02:31:45;103438.38;;;-1.57
8533;BMP280;4304;53.876;10.662;2023-04-03T02:34:11;103442.59;;;-1.58
8533;BMP280;4304;53.876;10.662;2023-04-03T02:36:39;103436.59;;;-1.60
8533;BMP280;4304;53.876;10.662;2023-04-03T02:39:05;103452.78;;;-1.58
8533;BMP280;4304;53.876;10.662;2023-04-03T02:41:30;103434.13;;;-1.57
8533;BMP280;4304;53.876;10.662;2023-04-03T02:44:05;103446.03;;;-1.56
8533;BMP280;4304;53.876;10.662;2023-04-03T02:46:31;103448.53;;;-1.59
8533;BMP280;4304;53.876;10.662;2023-04-03T02:48:56;103445.94;;;-1.60
8533;BMP280;4304;53.876;10.662;2023-04-03T02:51:22;103444.28;;;-1.58
8533;BMP280;4304;53.876;10.662;2023-04-03T02:53:50;103453.66;;;-1.57
8533;BMP280;4304;53.876;10.662;2023-04-03T02:56:17;103446.78;;;-1.60
8533;BMP280;4304;53.876;10.662;2023-04-03T02:58:43;103443.31;;;-1.63
8533;BMP280;4304;53.876;10.662;2023-04-03T03:01:10;103452.69;;;-1.62
8533;BMP280;4304;53.876;10.662;2023-04-03T03:03:38;103441.53;;;-1.66
8533;BMP280;4304;53.876;10.662;2023-04-03T03:06:05;103441.47;;;-1.69
8533;BMP280;4304;53.876;10.662;2023-04-03T03:08:34;103425.97;;;-1.76
8533;BMP280;4304;53.876;10.662;2023-04-03T03:11:00;103436.13;;;-1.77
8533;BMP280;4304;53.876;10.662;2023-04-03T03:13:28;103447.19;;;-1.78
8533;BMP280;4304;53.876;10.662;2023-04-03T03:15:54;103444.53;;;-1.81
8533;BMP280;4304;53.876;10.662;2023-04-03T03:18:19;103452.09;;;-1.84
8533;BMP280;4304;53.876;10.662;2023-04-03T03:20:45;103439.38;;;-1.84
8533;BMP280;4304;53.876;10.662;2023-04-03T03:23:11;103443.66;;;-1.83
8533;BMP280;4304;53.876;10.662;2023-04-03T03:25:40;103442.72;;;-1.85
8533;BMP280;4304;53.876;10.662;2023-04-03T03:28:06;103453.03;;;-1.81
8533;BMP280;4304;53.876;10.662;2023-04-03T03:30:32;103451.34;;;-1.80
8533;BMP280;4304;53.876;10.662;2023-04-03T03:32:59;103442.72;;;-1.85
8533;BMP280;4304;53.876;10.662;2023-04-03T03:35:25;103445.22;;;-1.87
8533;BMP280;4304;53.876;10.662;2023-04-03T03:37:54;103448.66;;;-1.86
8533;BMP280;4304;53.876;10.662;2023-04-03T03:40:19;103451.13;;;-1.89
8533;BMP280;4304;53.876;10.662;2023-04-03T03:42:45;103448.50;;;-1.92
8533;BMP280;4304;53.876;10.662;2023-04-03T03:45:10;103445.13;;;-1.91
8533;BMP280;4304;53.876;10.662;2023-04-03T03:47:36;103453.69;;;-1.89
8533;BMP280;4304;53.876;10.662;2023-04-03T03:50:02;103451.91;;;-1.92
8533;BMP280;4304;53.876;10.662;2023-04-03T03:52:28;103443.28;;;-1.97
8533;BMP280;4304;53.876;10.662;2023-04-03T03:54:57;103443.28;;;-1.97
8533;BMP280;4304;53.876;10.662;2023-04-03T03:57:22;103442.41;;;-1.97
8533;BMP280;4304;53.876;10.662;2023-04-03T03:59:48;103444.13;;;-1.98
8533;BMP280;4304;53.876;10.662;2023-04-03T04:02:14;103455.97;;;-1.98
8533;BMP280;4304;53.876;10.662;2023-04-03T04:04:39;103448.22;;;-2.03
8533;BMP280;4304;53.876;10.662;2023-04-03T04:07:05;103451.63;;;-2.02
8533;BMP280;4304;53.876;10.662;2023-04-03T04:09:31;103460.22;;;-1.99
8533;BMP280;4304;53.876;10.662;2023-04-03T04:11:56;103459.41;;;-1.98
8533;BMP280;4304;53.876;10.662;2023-04-03T04:14:22;103459.31;;;-2.01
8533;BMP280;4304;53.876;10.662;2023-04-03T04:16:47;103462.63;;;-2.05
8533;BMP280;4304;53.876;10.662;2023-04-03T04:19:13;103448.94;;;-2.07
8533;BMP280;4304;53.876;10.662;2023-04-03T04:21:40;103457.38;;;-2.09
8533;BMP280;4304;53.876;10.662;2023-04-03T04:24:07;103471.06;;;-2.06
8533;BMP280;4304;53.876;10.662;2023-04-03T04:26:32;103465.84;;;-2.10
8533;BMP280;4304;53.876;10.662;2023-04-03T04:28:57;103469.94;;;-2.15
8533;BMP280;4304;53.876;10.662;2023-04-03T04:31:23;103467.50;;;-2.12
8533;BMP280;4304;53.876;10.662;2023-04-03T04:33:52;103478.47;;;-2.14
8533;BMP280;4304;53.876;10.662;2023-04-03T04:36:17;103473.34;;;-2.16
8533;BMP280;4304;53.876;10.662;2023-04-03T04:38:43;103470.84;;;-2.14
8533;BMP280;4304;53.876;10.662;2023-04-03T04:41:08;103475.94;;;-2.13
8533;BMP280;4304;53.876;10.662;2023-04-03T04:43:34;103474.25;;;-2.14
8533;BMP280;4304;53.876;10.662;2023-04-03T04:46:07;103481.03;;;-2.13
8533;BMP280;4304;53.876;10.662;2023-04-03T04:48:36;103484.53;;;-2.11
8533;BMP280;4304;53.876;10.662;2023-04-03T04:51:01;103480.22;;;-2.12
8533;BMP280;4304;53.876;10.662;2023-04-03T04:53:27;103487.16;;;-2.07
8533;BMP280;4304;53.876;10.662;2023-04-03T04:55:52;103494.03;;;-2.04
8533;BMP280;4304;53.876;10.662;2023-04-03T04:58:18;103491.53;;;-2.03
8533;BMP280;4304;53.876;10.662;2023-04-03T05:00:44;103485.59;;;-2.02
8533;BMP280;4304;53.876;10.662;2023-04-03T05:03:09;103500.22;;;-1.96
8533;BMP280;4304;53.876;10.662;2023-04-03T05:05:35;103504.44;;;-1.97
8533;BMP280;4304;53.876;10.662;2023-04-03T05:08:01;103492.56;;;-1.96
8533;BMP280;4304;53.876;10.662;2023-04-03T05:10:27;103505.41;;;-1.92
8533;BMP280;4304;53.876;10.662;2023-04-03T05:12:52;103496.19;;;-1.87
8533;BMP280;4304;53.876;10.662;2023-04-03T05:15:17;103514.25;;;-1.79
8533;BMP280;4304;53.876;10.662;2023-04-03T05:17:43;103503.22;;;-1.80
8533;BMP280;4304;53.876;10.662;2023-04-03T05:20:08;103507.69;;;-1.71
8533;BMP280;4304;53.876;10.662;2023-04-03T05:22:34;103509.50;;;-1.66
8533;BMP280;4304;53.876;10.662;2023-04-03T05:24:59;103503.91;;;-1.53
8533;BMP280;4304;53.876;10.662;2023-04-03T05:27:25;103511.84;;;-1.41
8533;BMP280;4304;53.876;10.662;2023-04-03T05:29:53;103507.03;;;-1.31
8533;BMP280;4304;53.876;10.662;2023-04-03T05:32:19;103496.25;;;-1.18
8533;BMP280;4304;53.876;10.662;2023-04-03T05:34:45;103515.44;;;-1.00
8533;BMP280;4304;53.876;10.662;2023-04-03T05:37:11;103514.97;;;-0.83
8533;BMP280;4304;53.876;10.662;2023-04-03T05:39:36;103517.22;;;-0.59
8533;BMP280;4304;53.876;10.662;2023-04-03T05:42:03;103523.56;;;-0.41
8533;BMP280;4304;53.876;10.662;2023-04-03T05:44:28;103528.38;;;-0.15
8533;BMP280;4304;53.876;10.662;2023-04-03T05:46:54;103515.97;;;0.04
8533;BMP280;4304;53.876;10.662;2023-04-03T05:49:19;103522.69;;;0.43
8533;BMP280;4304;53.876;10.662;2023-04-03T05:51:45;103522.09;;;0.58
8533;BMP280;4304;53.876;10.662;2023-04-03T05:54:18;103515.88;;;0.94
8533;BMP280;4304;53.876;10.662;2023-04-03T05:56:44;103529.94;;;1.21
8533;BMP280;4304;53.876;10.662;2023-04-03T05:59:10;103528.69;;;1.51
8533;BMP280;4304;53.876;10.662;2023-04-03T06:01:36;103534.16;;;1.79
8533;BMP280;4304;53.876;10.662;2023-04-03T06:04:02;103529.59;;;2.28
8533;BMP280;4304;53.876;10.662;2023-04-03T06:06:52;103545.34;;;2.62
8533;BMP280;4304;53.876;10.662;2023-04-03T06:09:22;103559.34;;;2.97
8533;BMP280;4304;53.876;10.662;2023-04-03T06:11:47;103554.53;;;3.41
8533;BMP280;4304;53.876;10.662;2023-04-03T06:14:13;103550.47;;;3.83
8533;BMP280;4304;53.876;10.662;2023-04-03T06:16:39;103553.78;;;3.63
8533;BMP280;4304;53.876;10.662;2023-04-03T06:19:05;103554.81;;;3.95
8533;BMP280;4304;53.876;10.662;2023-04-03T06:21:32;103554.97;;;4.47
8533;BMP280;4304;53.876;10.662;2023-04-03T06:23:57;103548.84;;;4.11
8533;BMP280;4304;53.876;10.662;2023-04-03T06:26:22;103532.47;;;3.89
8533;BMP280;4304;53.876;10.662;2023-04-03T06:28:48;103550.69;;;4.65
8533;BMP280;4304;53.876;10.662;2023-04-03T06:31:13;103542.97;;;4.66
8533;BMP280;4304;53.876;10.662;2023-04-03T06:33:39;103544.63;;;4.33
8533;BMP280;4304;53.876;10.662;2023-04-03T06:36:05;103561.88;;;5.28
8533;BMP280;4304;53.876;10.662;2023-04-03T06:38:32;103554.06;;;5.50
8533;BMP280;4304;53.876;10.662;2023-04-03T06:40:57;103536.97;;;4.87
8533;BMP280;4304;53.876;10.662;2023-04-03T06:43:23;103557.56;;;5.27
8533;BMP280;4304;53.876;10.662;2023-04-03T06:45:49;103563.59;;;5.26
8533;BMP280;4304;53.876;10.662;2023-04-03T06:48:14;103554.97;;;5.37
8533;BMP280;4304;53.876;10.662;2023-04-03T06:50:40;103593.59;;;5.55
8533;BMP280;4304;53.876;10.662;2023-04-03T06:53:06;103644.34;;;5.80
8533;BMP280;4304;53.876;10.662;2023-04-03T06:55:32;103639.91;;;6.20
8533;BMP280;4304;53.876;10.662;2023-04-03T06:57:57;103654.97;;;7.00
8533;BMP280;4304;53.876;10.662;2023-04-03T07:00:23;103640.53;;;6.70
8533;BMP280;4304;53.876;10.662;2023-04-03T07:02:50;103661.28;;;6.58
8533;BMP280;4304;53.876;10.662;2023-04-03T07:05:15;103668.25;;;6.42
8533;BMP280;4304;53.876;10.662;2023-04-03T07:07:40;103669.88;;;6.58
8533;BMP280;4304;53.876;10.662;2023-04-03T07:10:07;103675.63;;;7.09
8533;BMP280;4304;53.876;10.662;2023-04-03T07:12:32;103689.53;;;6.89
8533;BMP280;4304;53.876;10.662;2023-04-03T07:14:58;103680.38;;;7.57
8533;BMP280;4304;53.876;10.662;2023-04-03T07:17:23;103676.56;;;6.96
8533;BMP280;4304;53.876;10.662;2023-04-03T07:19:49;103686.03;;;6.97
8533;BMP280;4304;53.876;10.662;2023-04-03T07:22:14;103670.47;;;7.02
8533;BMP280;4304;53.876;10.662;2023-04-03T07:24:39;103681.88;;;6.68
8533;BMP280;4304;53.876;10.662;2023-04-03T07:27:05;103659.19;;;7.16
8533;BMP280;4304;53.876;10.662;2023-04-03T07:29:30;103687.03;;;6.73
8533;BMP280;4304;53.876;10.662;2023-04-03T07:31:56;103703.03;;;7.31
8533;BMP280;4304;53.876;10.662;2023-04-03T07:34:21;103692.72;;;7.28
8533;BMP280;4304;53.876;10.662;2023-04-03T07:36:47;103711.22;;;7.85
8533;BMP280;4304;53.876;10.662;2023-04-03T07:39:12;103693.63;;;7.22
8533;BMP280;4304;53.876;10.662;2023-04-03T07:41:37;103712.81;;;6.86
8533;BMP280;4304;53.876;10.662;2023-04-03T07:44:03;103695.38;;;7.18
8533;BMP280;4304;53.876;10.662;2023-04-03T07:46:29;103703.16;;;7.12
8533;BMP280;4304;53.876;10.662;2023-04-03T07:48:55;103686.44;;;7.59
8533;BMP280;4304;53.876;10.662;2023-04-03T07:51:20;103699.16;;;7.78
8533;BMP280;4304;53.876;10.662;2023-04-03T07:53:45;103676.84;;;6.38
8533;BMP280;4304;53.876;10.662;2023-04-03T07:56:11;103638.09;;;6.38
8533;BMP280;4304;53.876;10.662;2023-04-03T07:58:36;103660.50;;;6.38
8533;BMP280;4304;53.876;10.662;2023-04-03T08:01:02;103699.94;;;6.80
8533;BMP280;4304;53.876;10.662;2023-04-03T08:03:28;103670.78;;;6.50
8533;BMP280;4304;53.876;10.662;2023-04-03T08:05:53;103702.22;;;7.24
8533;BMP280;4304;53.876;10.662;2023-04-03T08:08:22;103718.59;;;7.23
8533;BMP280;4304;53.876;10.662;2023-04-03T08:10:50;103700.56;;;7.18
8533;BMP280;4304;53.876;10.662;2023-04-03T08:13:15;103679.25;;;6.79
8533;BMP280;4304;53.876;10.662;2023-04-03T08:15:41;103667.88;;;7.09
8533;BMP280;4304;53.876;10.662;2023-04-03T08:18:06;103704.53;;;7.60
8533;BMP280;4304;53.876;10.662;2023-04-03T08:20:31;103709.84;;;7.45
8533;BMP280;4304;53.876;10.662;2023-04-03T08:22:57;103675.66;;;7.03
8533;BMP280;4304;53.876;10.662;2023-04-03T08:25:22;103693.91;;;7.88
8533;BMP280;4304;53.876;10.662;2023-04-03T08:27:48;103668.63;;;7.22
8533;BMP280;4304;53.876;10.662;2023-04-03T08:30:13;103724.63;;;7.27
8533;BMP280;4304;53.876;10.662;2023-04-03T08:32:39;103706.09;;;7.77
8533;BMP280;4304;53.876;10.662;2023-04-03T08:35:07;103744.03;;;7.81
8533;BMP280;4304;53.876;10.662;2023-04-03T08:37:35;103742.22;;;6.61
8533;BMP280;4304;53.876;10.662;2023-04-03T08:40:01;103720.69;;;6.59
8533;BMP280;4304;53.876;10.662;2023-04-03T08:45:12;103697.44;;;6.61
8533;BMP280;4304;53.876;10.662;2023-04-03T08:50:13;103648.59;;;6.01
8533;BMP280;4304;53.876;10.662;2023-04-03T08:52:55;103668.34;;;6.14
8533;BMP280;4304;53.876;10.662;2023-04-03T08:55:43;103679.53;;;6.10
8533;BMP280;4304;53.876;10.662;2023-04-03T08:58:14;103648.66;;;5.79
8533;BMP280;4304;53.876;10.662;2023-04-03T09:01:24;103638.06;;;6.49
8533;BMP280;4304;53.876;10.662;2023-04-03T09:03:31;103689.03;;;6.10
8533;BMP280;4304;53.876;10.662;2023-04-03T09:06:07;103650.38;;;5.77
8533;BMP280;4304;53.876;10.662;2023-04-03T09:08:54;103686.47;;;5.92
8533;BMP280;4304;53.876;10.662;2023-04-03T09:13:59;103727.75;;;6.08
8533;BMP280;4304;53.876;10.662;2023-04-03T09:22:41;103671.03;;;5.52
8533;BMP280;4304;53.876;10.662;2023-04-03T09:25:13;103769.06;;;5.51
8533;BMP280;4304;53.876;10.662;2023-04-03T09:27:40;103726.88;;;5.49
8533;BMP280;4304;53.876;10.662;2023-04-03T09:30:11;103775.06;;;6.24
8533;BMP280;4304;53.876;10.662;2023-04-03T09:32:37;103802.53;;;6.62
8533;BMP280;4304;53.876;10.662;2023-04-03T09:35:27;103780.13;;;6.62
8533;BMP280;4304;53.876;10.662;2023-04-03T09:37:59;103764.50;;;6.89
8533;BMP280;4304;53.876;10.662;2023-04-03T09:42:51;103803.22;;;7.02
8533;BMP280;4304;53.876;10.662;2023-04-03T09:45:30;103786.16;;;6.63
8533;BMP280;4304;53.876;10.662;2023-04-03T09:50:32;103775.91;;;6.40
8533;BMP280;4304;53.876;10.662;2023-04-03T09:52:58;103725.03;;;6.56
8533;BMP280;4304;53.876;10.662;2023-04-03T09:55:27;103756.81;;;6.70
8533;BMP280;4304;53.876;10.662;2023-04-03T09:57:58;103732.56;;;6.96
8533;BMP280;4304;53.876;10.662;2023-04-03T10:00:31;103769.47;;;7.26
8533;BMP280;4304;53.876;10.662;2023-04-03T10:02:58;103808.38;;;7.02
8533;BMP280;4304;53.876;10.662;2023-04-03T10:07:49;103773.09;;;6.94
8533;BMP280;4304;53.876;10.662;2023-04-03T10:10:21;103806.63;;;7.12
8533;BMP280;4304;53.876;10.662;2023-04-03T10:13:04;103775.19;;;7.69
8533;BMP280;4304;53.876;10.662;2023-04-03T10:15:35;103758.88;;;7.60
8533;BMP280;4304;53.876;10.662;2023-04-03T10:18:06;103793.19;;;7.83
8533;BMP280;4304;53.876;10.662;2023-04-03T10:20:37;103812.31;;;7.70
8533;BMP280;4304;53.876;10.662;2023-04-03T10:23:15;103803.66;;;7.71
8533;BMP280;4304;53.876;10.662;2023-04-03T10:28:21;103796.81;;;7.63
8533;BMP280;4304;53.876;10.662;2023-04-03T10:30:58;103782.19;;;7.59
8533;BMP280;4304;53.876;10.662;2023-04-03T10:33:36;103751.38;;;7.22
8533;BMP280;4304;53.876;10.662;2023-04-03T10:36:16;103841.63;;;7.75
8533;BMP280;4304;53.876;10.662;2023-04-03T10:50:07;103729.88;;;7.11
8533;BMP280;4304;53.876;10.662;2023-04-03T10:55:58;103721.00;;;7.50
8533;BMP280;4304;53.876;10.662;2023-04-03T10:58:40;103715.84;;;7.49
8533;BMP280;4304;53.876;10.662;2023-04-03T11:01:19;103729.47;;;7.68
8533;BMP280;4304;53.876;10.662;2023-04-03T11:03:53;103715.75;;;7.61
8533;BMP280;4304;53.876;10.662;2023-04-03T11:06:21;103703.53;;;7.73
8533;BMP280;4304;53.876;10.662;2023-04-03T11:09:03;103723.41;;;7.69
8533;BMP280;4304;53.876;10.662;2023-04-03T11:11:36;103754.81;;;7.23
8533;BMP280;4304;53.876;10.662;2023-04-03T11:14:15;103706.09;;;7.74
8533;BMP280;4304;53.876;10.662;2023-04-03T11:16:46;103704.53;;;7.60
8533;BMP280;4304;53.876;10.662;2023-04-03T11:19:21;103676.47;;;7.08
8533;BMP280;4304;53.876;10.662;2023-04-03T11:22:04;103694.91;;;7.74
8533;BMP280;4304;53.876;10.662;2023-04-03T11:24:32;103739.16;;;7.46
8533;BMP280;4304;53.876;10.662;2023-04-03T11:27:00;103733.28;;;7.24
8533;BMP280;4304;53.876;10.662;2023-04-03T11:29:34;103734.13;;;7.25
8533;BMP280;4304;53.876;10.662;2023-04-03T11:32:07;103699.63;;;7.24
8533;BMP280;4304;53.876;10.662;2023-04-03T11:34:48;103708.94;;;7.48
8533;BMP280;4304;53.876;10.662;2023-04-03T11:37:23;103715.72;;;7.62
8533;BMP280;4304;53.876;10.662;2023-04-03T11:39:57;103723.47;;;7.66
8533;BMP280;4304;53.876;10.662;2023-04-03T11:42:36;103826.00;;;7.85
8533;BMP280;4304;53.876;10.662;2023-04-03T11:47:56;103789.09;;;7.57
8533;BMP280;4304;53.876;10.662;2023-04-03T12:05:53;103719.44;;;7.28
8533;BMP280;4304;53.876;10.662;2023-04-03T12:26:51;103655.25;;;6.54
8533;BMP280;4304;53.876;10.662;2023-04-03T12:45:50;103614.19;;;5.99
8533;BMP280;4304;53.876;10.662;2023-04-03T12:48:21;103585.81;;;5.95
8533;BMP280;4304;53.876;10.662;2023-04-03T12:50:49;103584.09;;;5.90
8533;BMP280;4304;53.876;10.662;2023-04-03T12:53:19;103551.25;;;6.26
8533;BMP280;4304;53.876;10.662;2023-04-03T12:55:45;103580.56;;;6.13
8533;BMP280;4304;53.876;10.662;2023-04-03T13:00:40;103570.94;;;6.37
8533;BMP280;4304;53.876;10.662;2023-04-03T13:03:06;103557.16;;;6.41
8533;BMP280;4304;53.876;10.662;2023-04-03T13:05:44;103595.00;;;6.45
8533;BMP280;4304;53.876;10.662;2023-04-03T13:08:12;103541.84;;;6.05
8533;BMP280;4304;53.876;10.662;2023-04-03T13:10:50;103582.19;;;6.30
8533;BMP280;4304;53.876;10.662;2023-04-03T13:13:16;103566.69;;;6.32
8533;BMP280;4304;53.876;10.662;2023-04-03T13:15:44;103578.06;;;5.91
8533;BMP280;4304;53.876;10.662;2023-04-03T13:18:32;103541.00;;;6.05
8533;BMP280;4304;53.876;10.662;2023-04-03T13:21:23;103540.03;;;6.24
8533;BMP280;4304;53.876;10.662;2023-04-03T13:23:49;103560.59;;;6.40
8533;BMP280;4304;53.876;10.662;2023-04-03T13:26:17;103557.06;;;6.56
8533;BMP280;4304;53.876;10.662;2023-04-03T13:28:45;103529.78;;;6.13
8533;BMP280;4304;53.876;10.662;2023-04-03T13:34:20;103527.28;;;5.97
8533;BMP280;4304;53.876;10.662;2023-04-03T13:41:51;103511.78;;;6.00
8533;BMP280;4304;53.876;10.662;2023-04-03T13:46:52;103499.78;;;5.93
8533;BMP280;4304;53.876;10.662;2023-04-03T13:49:42;103489.41;;;5.96
8533;BMP280;4304;53.876;10.662;2023-04-03T13:52:30;103489.50;;;5.80
8533;BMP280;4304;53.876;10.662;2023-04-03T13:55:03;103469.72;;;5.76
8533;BMP280;4304;53.876;10.662;2023-04-03T13:57:56;103469.75;;;5.67
8533;BMP280;4304;53.876;10.662;2023-04-03T14:00:30;103484.38;;;5.74
8533;BMP280;4304;53.876;10.662;2023-04-03T14:02:58;103457.66;;;5.81
8533;BMP280;4304;53.876;10.662;2023-04-03T14:05:24;103457.66;;;5.81
8533;BMP280;4304;53.876;10.662;2023-04-03T14:07:53;103436.25;;;5.56
8533;BMP280;4304;53.876;10.662;2023-04-03T14:10:19;103431.94;;;5.58
8533;BMP280;4304;53.876;10.662;2023-04-03T14:12:45;103419.84;;;5.77
8533;BMP280;4304;53.876;10.662;2023-04-03T14:15:22;103435.38;;;5.62
8533;BMP280;4304;53.876;10.662;2023-04-03T14:17:50;103462.81;;;5.82
8533;BMP280;4304;53.876;10.662;2023-04-03T14:20:19;103476.63;;;5.68
8533;BMP280;4304;53.876;10.662;2023-04-03T14:22:46;103469.75;;;5.68
8533;BMP280;4304;53.876;10.662;2023-04-03T14:25:11;103473.19;;;5.72
8533;BMP280;4304;53.876;10.662;2023-04-03T14:27:42;103481.84;;;5.49
8533;BMP280;4304;53.876;10.662;2023-04-03T14:30:17;103445.63;;;5.80
8533;BMP280;4304;53.876;10.662;2023-04-03T14:32:43;103460.28;;;5.70
8533;BMP280;4304;53.876;10.662;2023-04-03T14:35:12;103463.00;;;5.39
8533;BMP280;4304;53.876;10.662;2023-04-03T14:37:37;103469.81;;;5.51
8533;BMP280;4304;53.876;10.662;2023-04-03T14:40:04;103462.16;;;5.34
8533;BMP280;4304;53.876;10.662;2023-04-03T14:42:33;103478.47;;;5.42
8533;BMP280;4304;53.876;10.662;2023-04-03T14:45:00;103468.97;;;5.44
8533;BMP280;4304;53.876;10.662;2023-04-03T14:47:28;103458.59;;;5.59
8533;BMP280;4304;53.876;10.662;2023-04-03T14:49:54;103444.06;;;5.40
8533;BMP280;4304;53.876;10.662;2023-04-03T14:52:37;103444.88;;;5.55
8533;BMP280;4304;53.876;10.662;2023-04-03T14:55:04;103467.25;;;5.42
8533;BMP280;4304;53.876;10.662;2023-04-03T14:57:31;103456.88;;;5.55
8533;BMP280;4304;53.876;10.662;2023-04-03T14:59:57;103456.09;;;5.47
8533;BMP280;4304;53.876;10.662;2023-04-03T15:02:36;103430.31;;;5.41
8533;BMP280;4304;53.876;10.662;2023-04-03T15:05:04;103462.16;;;5.30
8533;BMP280;4304;53.876;10.662;2023-04-03T15:07:32;103458.69;;;5.37
8533;BMP280;4304;53.876;10.662;2023-04-03T15:10:02;103472.47;;;5.24
8533;BMP280;4304;53.876;10.662;2023-04-03T15:12:30;103481.88;;;5.41
8533;BMP280;4304;53.876;10.662;2023-04-03T15:14:56;103464.78;;;5.18
8533;BMP280;4304;53.876;10.662;2023-04-03T15:17:22;103449.31;;;5.10
8533;BMP280;4304;53.876;10.662;2023-04-03T15:19:48;103481.09;;;5.24
8533;BMP280;4304;53.876;10.662;2023-04-03T15:22:19;103501.66;;;5.39
8533;BMP280;4304;53.876;10.662;2023-04-03T15:24:47;103502.50;;;5.43
8533;BMP280;4304;53.876;10.662;2023-04-03T15:27:15;103462.94;;;5.51
8533;BMP280;4304;53.876;10.662;2023-04-03T15:29:42;103465.47;;;5.58
8533;BMP280;4304;53.876;10.662;2023-04-03T15:32:09;103470.72;;;5.41
8533;BMP280;4304;53.876;10.662;2023-04-03T15:34:38;103450.09;;;5.35
8533;BMP280;4304;53.876;10.662;2023-04-03T15:37:06;103451.84;;;5.28
8533;BMP280;4304;53.876;10.662;2023-04-03T15:39:32;103431.25;;;5.19
8533;BMP280;4304;53.876;10.662;2023-04-03T15:42:09;103432.03;;;5.36
8533;BMP280;4304;53.876;10.662;2023-04-03T15:44:34;103424.38;;;5.18
8533;BMP280;4304;53.876;10.662;2023-04-03T15:47:06;103429.56;;;5.01
8533;BMP280;4304;53.876;10.662;2023-04-03T15:49:33;103416.69;;;5.09
8533;BMP280;4304;53.876;10.662;2023-04-03T15:52:05;103438.94;;;5.25
8533;BMP280;4304;53.876;10.662;2023-04-03T15:54:35;103412.41;;;5.00
8533;BMP280;4304;53.876;10.662;2023-04-03T15:57:01;103421.84;;;5.05
8533;BMP280;4304;53.876;10.662;2023-04-03T15:59:26;103400.38;;;4.94
8533;BMP280;4304;53.876;10.662;2023-04-03T16:01:54;103399.53;;;4.91
8533;BMP280;4304;53.876;10.662;2023-04-03T16:04:20;103404.69;;;4.98
8533;BMP280;4304;53.876;10.662;2023-04-03T16:06:48;103402.94;;;4.93
8533;BMP280;4304;53.876;10.662;2023-04-03T16:09:17;103420.94;;;5.10
8533;BMP280;4304;53.876;10.662;2023-04-03T16:11:42;103424.41;;;5.01
8533;BMP280;4304;53.876;10.662;2023-04-03T16:14:11;103396.91;;;5.01